WSB weather

Steamboat Bay Seaplane Base
Steamboat Bay, Alaska, United States

Public forecast

Using degrees Fahrenheit for public forecast. Weather courtesy of forecast.io.

METAR (pilot weather report)

Closest report is Klawock Airport, 19.5 nm (36.0 km) E. Retrieved 2019/09/19 04:53 UTC (16 minutes ago):

PAKW 190453Z AUTO 20004KT 10SM OVC023 13/11 A2995 RMK SLP142 T01330111 TSNO $ VIA AUTODIAL

TAF (pilot weather forecast)

Forecast is more than 12 hours old.

Closest forecast is Klawock Airport, 19.5 nm (36.0 km) E. Retrieved 2019/09/18 00:48 UTC (1 day ago):

TAF PAKW 182345Z 1900/1924 21005KT P6SM VCSH BKN040 OVC070 FM190300 21012KT 6SM -RA BR BKN025 OVC040 FM190700 21010KT 4SM -RA BR BKN015 OVC025 FM191500 21008KT 6SM -RA BR BKN025 OVC040 FM192100 21004KT P6SM VCSH SCT025 OVC040 AMD LTD TO CLD VIS AND WIND